This is the latest recevied weather packets stored in our database for station/object IU1OPQ-3. If no packets are shown the sender has not sent any weather packets the latest 10 day(s).
| Time | Temp. | Humidity | Pressure | Rain* | Wind** | Luminosity | Snow |
|---|---|---|---|---|---|---|---|
| 1777997701 | 12.78° C | 89% | 1012.4 hPa | 0 mm | - | - | - |
| 1777996801 | 12.22° C | 91% | 1012.1 hPa | 0 mm | - | - | - |
| 1777995901 | 12.78° C | 89% | 1012.5 hPa | 0 mm | - | - | - |
| 1777995000 | 12.78° C | 88% | 1012.7 hPa | 0 mm | - | - | - |
| 1777994100 | 11.67° C | 93% | 1012.7 hPa | 0 mm | - | - | - |
| 1777993201 | 11.11° C | 94% | 1012.7 hPa | 0 mm | - | - | - |
| 1777992301 | 11.11° C | 94% | 1012.4 hPa | 0 mm | - | - | - |
| 1777991401 | 11.67° C | 93% | 1012.9 hPa | 0 mm | - | - | - |
| 1777990501 | 11.11° C | 94% | 1012.9 hPa | 0 mm | - | - | - |
| 1777989601 | 11.11° C | 95% | 1013 hPa | 0 mm | - | - | - |
| 1777988701 | 10.56° C | 96% | 1012.8 hPa | 0 mm | - | - | - |
| 1777987801 | 10.56° C | 98% | 1013 hPa | 0 mm | - | - | - |
| 1777986901 | 10.56° C | 98% | 1012.9 hPa | 0 mm | - | - | - |
| 1777986001 | 10.56° C | 98% | 1012.8 hPa | 0 mm | - | - | - |
| 1777985101 | 11.11° C | 98% | 1013.2 hPa | 0 mm | - | - | - |
| 1777984200 | 10.56° C | 98% | 1013.1 hPa | 0 mm | - | - | - |
| 1777983301 | 10° C | 99% | 1013.3 hPa | 0 mm | - | - | - |
| 1777982400 | 10° C | 98% | 1013.4 hPa | 0 mm | - | - | - |
| 1777981500 | 10° C | 98% | 1013.1 hPa | 0 mm | - | - | - |
| 1777980601 | 10° C | 98% | 1013.2 hPa | 0 mm | - | - | - |
| 1777979700 | 10.56° C | 99% | 1013.5 hPa | 0 mm | - | - | - |
| 1777978801 | 10° C | 99% | 1013.3 hPa | 0 mm | - | - | - |
| 1777977901 | 10° C | 99% | 1013.4 hPa | 0 mm | - | - | - |
| 1777977001 | 10° C | 99% | 1013.3 hPa | 0 mm | - | - | - |
| 1777976101 | 9.44° C | 99% | 1013.4 hPa | 0 mm | - | - | - |
* Rain latest hour (hover to see other rain measurements)
** Current wind speed in m/s (hover to see current wind gust speed)